LOT7752 EFRO-EPSY
Flight info
| Callsign | LOT7752 |
|---|---|
| Flight time | N/A |
| Altitude | 35000 |
| Route | RENVI Y86 LUSEP/N0464F360 DCT SULUN/N0462F370 DCT LUTAL/N0461F360 P870 RUVAT L738 ASKOR/N0460F370 DCT ORZIK/N0461F360 |
| Aircraft | B738/M-SDE2E3FGHIRWXY/LB1 |
Departure
| Time | 2026-05-06 14:58 |
|---|---|
| Airport | Rovaniemi Airport (EFRO) |
Arrival
| Time | N/A |
|---|---|
| Airport | Olsztyn-Mazury Airport (EPSY) |
| Time | Latitude | Longitude | Altitude | Speed | Heading |
|---|---|---|---|---|---|
| 2026-05-06 14:30 | 66.55956 | 25.83382 | 640 ft | 0 kts | 169° |
| 2026-05-06 14:51 | 66.55965 | 25.83377 | 641 ft | 2 kts | 158° |
| 2026-05-06 14:51 | 66.55978 | 25.83363 | 641 ft | 2 kts | 161° |
| 2026-05-06 14:51 | 66.55992 | 25.83351 | 642 ft | 2 kts | 161° |
| 2026-05-06 14:52 | 66.56005 | 25.83340 | 642 ft | 1 kts | 160° |
| 2026-05-06 14:52 | 66.56013 | 25.83339 | 642 ft | 1 kts | 218° |
| 2026-05-06 14:52 | 66.56017 | 25.83355 | 642 ft | 0 kts | 260° |
| 2026-05-06 14:52 | 66.56018 | 25.83373 | 642 ft | 0 kts | 261° |
| 2026-05-06 14:55 | 66.56016 | 25.83354 | 642 ft | 4 kts | 259° |
| 2026-05-06 14:55 | 66.56004 | 25.83193 | 644 ft | 13 kts | 259° |
| 2026-05-06 14:56 | 66.55985 | 25.82956 | 645 ft | 12 kts | 259° |
| 2026-05-06 14:56 | 66.55969 | 25.82757 | 645 ft | 11 kts | 258° |
| 2026-05-06 14:56 | 66.55955 | 25.82570 | 644 ft | 10 kts | 267° |
| 2026-05-06 14:56 | 66.55981 | 25.82407 | 643 ft | 5 kts | 306° |
| 2026-05-06 14:57 | 66.55984 | 25.82398 | 643 ft | 2 kts | 305° |
| 2026-05-06 14:57 | 66.56020 | 25.82275 | 643 ft | 12 kts | 314° |
| 2026-05-06 14:57 | 66.56087 | 25.82289 | 644 ft | 8 kts | 37° |
| 2026-05-06 14:57 | 66.56180 | 25.82464 | 649 ft | 49 kts | 37° |
| 2026-05-06 14:58 | 66.56762 | 25.83573 | 644 ft | 154 kts | 37° |
| 2026-05-06 14:58 | 66.57764 | 25.85535 | 1055 ft | 204 kts | 38° |
| 2026-05-06 14:58 | 66.58903 | 25.87859 | 2257 ft | 219 kts | 39° |
| 2026-05-06 14:58 | 66.60028 | 25.90253 | 3403 ft | 215 kts | 40° |
| 2026-05-06 14:59 | 66.61002 | 25.92997 | 4379 ft | 218 kts | 59° |
| 2026-05-06 14:59 | 66.61269 | 25.96641 | 5260 ft | 225 kts | 98° |
| 2026-05-06 14:59 | 66.60540 | 26.00180 | 5883 ft | 245 kts | 136° |
| 2026-05-06 14:59 | 66.59216 | 26.02985 | 6784 ft | 254 kts | 137° |
| 2026-05-06 15:00 | 66.57975 | 26.06142 | 7732 ft | 261 kts | 140° |
| 2026-05-06 15:00 | 66.56385 | 26.08110 | 8681 ft | 263 kts | 173° |
| 2026-05-06 15:00 | 66.54604 | 26.07583 | 9440 ft | 273 kts | 205° |
| 2026-05-06 15:00 | 66.53017 | 26.05019 | 10359 ft | 280 kts | 217° |
| 2026-05-06 15:01 | 66.51245 | 26.02607 | 10937 ft | 307 kts | 202° |
| 2026-05-06 15:01 | 66.49174 | 26.00721 | 11573 ft | 329 kts | 203° |
| 2026-05-06 15:01 | 66.47008 | 25.98414 | 12084 ft | 354 kts | 206° |
| 2026-05-06 15:01 | 66.44704 | 25.95758 | 12636 ft | 378 kts | 206° |
| 2026-05-06 15:02 | 66.42311 | 25.93001 | 13579 ft | 390 kts | 206° |
| 2026-05-06 15:02 | 66.39834 | 25.90145 | 14654 ft | 399 kts | 206° |
| 2026-05-06 15:02 | 66.37326 | 25.87243 | 15747 ft | 406 kts | 206° |
| 2026-05-06 15:02 | 66.34764 | 25.84277 | 16822 ft | 413 kts | 206° |
| 2026-05-06 15:03 | 66.32169 | 25.81275 | 17859 ft | 419 kts | 206° |
| 2026-05-06 15:03 | 66.29504 | 25.78197 | 18868 ft | 426 kts | 207° |
| 2026-05-06 15:03 | 66.26814 | 25.75096 | 19837 ft | 432 kts | 207° |
| 2026-05-06 15:03 | 66.24116 | 25.71992 | 20749 ft | 438 kts | 207° |
| 2026-05-06 15:04 | 66.21346 | 25.68813 | 21643 ft | 444 kts | 207° |
| 2026-05-06 15:04 | 66.18547 | 25.65607 | 22499 ft | 450 kts | 207° |
| 2026-05-06 15:04 | 66.15700 | 25.62355 | 23332 ft | 456 kts | 207° |
| 2026-05-06 15:04 | 66.12796 | 25.59072 | 24132 ft | 462 kts | 206° |
| 2026-05-06 15:05 | 66.09809 | 25.56235 | 24896 ft | 468 kts | 200° |
| 2026-05-06 15:05 | 66.06670 | 25.54185 | 25625 ft | 475 kts | 193° |
| 2026-05-06 15:05 | 66.03409 | 25.53218 | 26775 ft | 471 kts | 186° |
| 2026-05-06 15:05 | 66.00164 | 25.52954 | 27758 ft | 470 kts | 184° |
| 2026-05-06 15:06 | 65.96936 | 25.52769 | 28625 ft | 469 kts | 184° |
| 2026-05-06 15:06 | 65.93688 | 25.52516 | 29506 ft | 467 kts | 184° |
| 2026-05-06 15:06 | 65.90477 | 25.52259 | 30332 ft | 465 kts | 184° |
| 2026-05-06 15:06 | 65.87299 | 25.52030 | 31110 ft | 464 kts | 184° |
| 2026-05-06 15:07 | 65.84060 | 25.51815 | 31881 ft | 462 kts | 184° |
| 2026-05-06 15:07 | 65.80890 | 25.51609 | 32594 ft | 461 kts | 184° |
| 2026-05-06 15:07 | 65.77711 | 25.51405 | 33296 ft | 460 kts | 184° |
| 2026-05-06 15:07 | 65.74511 | 25.51204 | 33971 ft | 459 kts | 184° |
| 2026-05-06 15:08 | 65.71371 | 25.51009 | 34605 ft | 458 kts | 184° |
| 2026-05-06 15:08 | 65.68193 | 25.50814 | 34903 ft | 463 kts | 184° |
| 2026-05-06 15:08 | 65.64966 | 25.50617 | 34880 ft | 462 kts | 184° |
| 2026-05-06 15:09 | 65.58617 | 25.50241 | 34885 ft | 455 kts | 184° |
| 2026-05-06 15:09 | 65.52316 | 25.49866 | 34885 ft | 457 kts | 184° |
| 2026-05-06 15:10 | 65.45982 | 25.49494 | 34885 ft | 457 kts | 184° |
| 2026-05-06 15:10 | 65.39642 | 25.49125 | 34885 ft | 457 kts | 184° |
| 2026-05-06 15:11 | 65.33328 | 25.48760 | 34885 ft | 457 kts | 184° |
| 2026-05-06 15:11 | 65.26963 | 25.48392 | 34885 ft | 457 kts | 184° |
| 2026-05-06 15:12 | 65.20657 | 25.48024 | 34885 ft | 457 kts | 184° |
| 2026-05-06 15:12 | 65.14318 | 25.47657 | 34885 ft | 457 kts | 184° |
| 2026-05-06 15:13 | 65.08004 | 25.47295 | 34885 ft | 457 kts | 184° |
| 2026-05-06 15:13 | 65.01682 | 25.46941 | 34885 ft | 457 kts | 184° |
| 2026-05-06 15:14 | 64.95319 | 25.46583 | 34885 ft | 457 kts | 184° |
| 2026-05-06 15:14 | 64.88986 | 25.46220 | 34885 ft | 457 kts | 184° |
| 2026-05-06 15:15 | 64.82663 | 25.45861 | 34885 ft | 457 kts | 184° |
| 2026-05-06 15:15 | 64.76341 | 25.45503 | 34885 ft | 457 kts | 184° |
| 2026-05-06 15:16 | 64.70042 | 25.45149 | 34885 ft | 457 kts | 184° |
| 2026-05-06 15:16 | 64.63688 | 25.44793 | 34885 ft | 457 kts | 184° |
| 2026-05-06 15:17 | 64.57386 | 25.44441 | 34885 ft | 457 kts | 184° |
| 2026-05-06 15:17 | 64.51030 | 25.44088 | 34885 ft | 457 kts | 184° |
| 2026-05-06 15:18 | 64.44707 | 25.43739 | 34885 ft | 458 kts | 184° |
| 2026-05-06 15:18 | 64.38357 | 25.43390 | 34885 ft | 457 kts | 184° |
| 2026-05-06 15:19 | 64.32030 | 25.43045 | 34885 ft | 457 kts | 184° |
| 2026-05-06 15:19 | 64.25709 | 25.42702 | 34885 ft | 457 kts | 184° |
| 2026-05-06 15:20 | 64.19350 | 25.42358 | 34885 ft | 457 kts | 184° |
| 2026-05-06 15:20 | 64.13052 | 25.42019 | 34885 ft | 457 kts | 184° |
| 2026-05-06 15:21 | 64.06712 | 25.41680 | 34885 ft | 457 kts | 184° |
| 2026-05-06 15:21 | 64.00349 | 25.41340 | 34885 ft | 457 kts | 184° |
| 2026-05-06 15:22 | 63.94024 | 25.41005 | 34885 ft | 457 kts | 184° |
| 2026-05-06 15:22 | 63.87687 | 25.40670 | 34885 ft | 458 kts | 184° |
| 2026-05-06 15:23 | 63.81342 | 25.40338 | 34885 ft | 457 kts | 184° |
| 2026-05-06 15:23 | 63.75017 | 25.40022 | 34885 ft | 457 kts | 184° |
| 2026-05-06 15:24 | 63.68687 | 25.39701 | 34885 ft | 457 kts | 184° |
| 2026-05-06 15:24 | 63.62348 | 25.39359 | 34893 ft | 457 kts | 184° |
| 2026-05-06 15:25 | 63.56020 | 25.39024 | 34903 ft | 458 kts | 184° |
| 2026-05-06 15:25 | 63.49675 | 25.38697 | 34912 ft | 458 kts | 184° |
| 2026-05-06 15:26 | 63.43318 | 25.38372 | 34912 ft | 458 kts | 184° |
| 2026-05-06 15:26 | 63.37009 | 25.38050 | 34912 ft | 458 kts | 184° |
| 2026-05-06 15:27 | 63.30675 | 25.37726 | 34912 ft | 457 kts | 184° |
| 2026-05-06 15:27 | 63.24307 | 25.37400 | 34912 ft | 458 kts | 184° |
| 2026-05-06 15:28 | 63.17981 | 25.37077 | 34912 ft | 458 kts | 184° |
| 2026-05-06 15:28 | 63.11673 | 25.36758 | 34912 ft | 458 kts | 184° |
| 2026-05-06 15:29 | 63.05298 | 25.36436 | 34912 ft | 458 kts | 184° |
| 2026-05-06 15:29 | 62.98986 | 25.36118 | 34912 ft | 458 kts | 184° |
| 2026-05-06 15:30 | 62.92651 | 25.35802 | 34912 ft | 458 kts | 184° |
| 2026-05-06 15:30 | 62.86328 | 25.35487 | 34912 ft | 458 kts | 184° |
| 2026-05-06 15:31 | 62.79958 | 25.35172 | 34912 ft | 458 kts | 184° |
| 2026-05-06 15:31 | 62.73655 | 25.34858 | 34912 ft | 458 kts | 183° |
| 2026-05-06 15:32 | 62.64115 | 25.34382 | 34912 ft | 458 kts | 183° |
| 2026-05-06 15:32 | 62.57780 | 25.34069 | 34912 ft | 458 kts | 183° |
| 2026-05-06 15:33 | 62.51474 | 25.33758 | 34912 ft | 458 kts | 183° |
| 2026-05-06 15:33 | 62.45113 | 25.33451 | 34912 ft | 458 kts | 183° |
| 2026-05-06 15:34 | 62.38800 | 25.33147 | 34912 ft | 458 kts | 183° |
| 2026-05-06 15:34 | 62.32449 | 25.32842 | 34912 ft | 458 kts | 183° |
| 2026-05-06 15:35 | 62.26115 | 25.32540 | 34912 ft | 458 kts | 183° |
| 2026-05-06 15:35 | 62.19783 | 25.32239 | 34914 ft | 458 kts | 183° |
| 2026-05-06 15:36 | 62.13411 | 25.31938 | 34920 ft | 458 kts | 183° |
| 2026-05-06 15:36 | 62.07068 | 25.31638 | 34925 ft | 458 kts | 183° |
| 2026-05-06 15:37 | 62.00761 | 25.31335 | 34926 ft | 458 kts | 183° |
| 2026-05-06 15:37 | 61.94427 | 25.31031 | 34926 ft | 458 kts | 183° |
| 2026-05-06 15:38 | 61.88135 | 25.30738 | 34929 ft | 458 kts | 183° |
| 2026-05-06 15:38 | 61.81764 | 25.30441 | 34934 ft | 458 kts | 183° |
| 2026-05-06 15:39 | 61.75440 | 25.30148 | 34938 ft | 458 kts | 183° |
| 2026-05-06 15:39 | 61.69103 | 25.29855 | 34939 ft | 458 kts | 183° |
| 2026-05-06 15:40 | 61.62788 | 25.29564 | 34939 ft | 458 kts | 183° |
| 2026-05-06 15:40 | 61.56427 | 25.29268 | 34939 ft | 458 kts | 183° |
| 2026-05-06 15:41 | 61.50091 | 25.28970 | 34939 ft | 458 kts | 183° |
| 2026-05-06 15:41 | 61.43754 | 25.28674 | 34939 ft | 458 kts | 183° |
| 2026-05-06 15:42 | 61.37413 | 25.28380 | 34939 ft | 458 kts | 183° |
| 2026-05-06 15:42 | 61.31081 | 25.28087 | 34939 ft | 458 kts | 183° |
| 2026-05-06 15:43 | 61.24746 | 25.27797 | 34947 ft | 457 kts | 183° |
| 2026-05-06 15:43 | 61.18435 | 25.27512 | 34968 ft | 458 kts | 183° |
| 2026-05-06 15:44 | 61.12103 | 25.27227 | 34989 ft | 458 kts | 183° |
| 2026-05-06 15:44 | 61.05756 | 25.26943 | 34993 ft | 458 kts | 183° |
| 2026-05-06 15:45 | 60.99419 | 25.26616 | 34993 ft | 457 kts | 185° |
| 2026-05-06 15:45 | 60.93177 | 25.24836 | 34993 ft | 453 kts | 196° |
| 2026-05-06 15:46 | 60.87212 | 25.21139 | 34993 ft | 453 kts | 199° |
| 2026-05-06 15:46 | 60.81198 | 25.17394 | 34993 ft | 453 kts | 199° |
| 2026-05-06 15:47 | 60.75173 | 25.13608 | 34993 ft | 453 kts | 199° |
| 2026-05-06 15:47 | 60.69212 | 25.09854 | 34993 ft | 453 kts | 199° |
| 2026-05-06 15:48 | 60.63192 | 25.06069 | 34993 ft | 453 kts | 200° |
| 2026-05-06 15:48 | 60.57202 | 25.02312 | 34993 ft | 454 kts | 200° |
| 2026-05-06 15:49 | 60.51187 | 24.98550 | 34993 ft | 453 kts | 200° |
| 2026-05-06 15:49 | 60.45178 | 24.94803 | 34993 ft | 454 kts | 200° |
| 2026-05-06 15:50 | 60.39164 | 24.91068 | 34993 ft | 454 kts | 200° |
| 2026-05-06 15:50 | 60.33149 | 24.87347 | 34993 ft | 454 kts | 200° |
| 2026-05-06 15:51 | 60.27150 | 24.83648 | 34993 ft | 454 kts | 200° |
| 2026-05-06 15:51 | 60.21117 | 24.79943 | 34993 ft | 454 kts | 200° |
| 2026-05-06 15:52 | 60.15111 | 24.76270 | 34993 ft | 454 kts | 200° |
| 2026-05-06 15:52 | 60.09111 | 24.72613 | 34993 ft | 454 kts | 200° |
| 2026-05-06 15:53 | 60.03073 | 24.68948 | 34993 ft | 454 kts | 200° |
| 2026-05-06 15:53 | 59.97064 | 24.65313 | 34996 ft | 454 kts | 200° |
| 2026-05-06 15:54 | 59.91060 | 24.61696 | 35006 ft | 454 kts | 200° |
| 2026-05-06 15:54 | 59.85072 | 24.58102 | 35016 ft | 453 kts | 200° |
| 2026-05-06 15:55 | 59.79066 | 24.54511 | 35020 ft | 454 kts | 200° |
| 2026-05-06 15:55 | 59.73061 | 24.50934 | 35020 ft | 454 kts | 200° |
| 2026-05-06 15:56 | 59.67009 | 24.47344 | 35020 ft | 453 kts | 200° |
| 2026-05-06 15:56 | 59.61027 | 24.43807 | 35020 ft | 454 kts | 200° |
| 2026-05-06 15:57 | 59.54970 | 24.40239 | 35020 ft | 454 kts | 200° |
| 2026-05-06 15:57 | 59.48945 | 24.36704 | 35020 ft | 454 kts | 200° |
| 2026-05-06 15:58 | 59.42923 | 24.33184 | 35020 ft | 454 kts | 200° |
| 2026-05-06 15:58 | 59.36913 | 24.29684 | 35020 ft | 454 kts | 199° |
| 2026-05-06 15:59 | 59.30859 | 24.26171 | 35020 ft | 454 kts | 199° |
| 2026-05-06 15:59 | 59.24860 | 24.22704 | 35020 ft | 454 kts | 200° |
| 2026-05-06 16:00 | 59.18830 | 24.19231 | 35020 ft | 454 kts | 200° |
| 2026-05-06 16:00 | 59.12796 | 24.15768 | 35020 ft | 454 kts | 200° |
| 2026-05-06 16:01 | 59.06757 | 24.12314 | 35020 ft | 456 kts | 199° |
| 2026-05-06 16:01 | 59.00675 | 24.08864 | 35020 ft | 457 kts | 199° |
| 2026-05-06 16:02 | 58.94412 | 24.06621 | 35020 ft | 467 kts | 188° |
| 2026-05-06 16:02 | 58.87987 | 24.05696 | 35020 ft | 471 kts | 187° |
| 2026-05-06 16:03 | 58.81444 | 24.04634 | 35001 ft | 471 kts | 187° |
| 2026-05-06 16:03 | 58.74952 | 24.03645 | 34979 ft | 470 kts | 187° |